Aloha, OR

5:34 PM PDT on March 27, 2015 (GMT -0700)
Longacre Park | | Change Station
CLOSE
Current Station
Personal Weather Station
Location: Beaverton, OR
Elevation: 179 ft
Nearby Weather Stations

Elev 179 ft 45.51 °N, 122.87 °W | Updated 57 seconds ago

Mostly Cloudy
Mostly Cloudy
64.9 °F
Feels Like 64.9 °F
N
1.3
Wind Variable Wind from WNW
Gusts 2.7 mph

Today
High -- | Low -- °F
--% Chance of Precip.
Yesterday
High -- | Low -- °F
Precip. -- in
7:01 AM 7:32 PM
First Quarter, 57% visible
Pressure 30.00 in
Visibility 10.0 miles
Clouds Mostly Cloudy 3500 ft
Dew Point 51 °F
Humidity 60%
Rainfall 0.00 in
Snow Depth Not available.
UV 1 out of 12
Pollen 8.10 out of 12
Air Quality Not available.
Flu Activity Not available.
METAR KHIO 272353Z COR 25014G19KT 10SM BKN035 18/11 A3000 RMK AO2 SLP158 T01830106 10206 20144 55010

More Conditions Fewer Conditions

Pressure 30.00 in
Visibility 10.0 miles
Clouds Mostly Cloudy 3500 ft
Dew Point 51 °F
Humidity 60%
Rainfall 0.00 in
Snow Depth Not available.
UV 1 out of 12
Pollen 8.10 out of 12
Air Quality Not available.
Flu Activity Not available.
METAR KHIO 272353Z COR 25014G19KT 10SM BKN035 18/11 A3000 RMK AO2 SLP158 T01830106 10206 20144 55010

More Conditions Fewer Conditions

10-Day Weather Forecast

Almanac

Astronomy

Mar. 27, 2015 Rise Set
Actual Time
Civil Twilight
Nautical Twilight
Astronomical Twilight
Moon
Length of Visible Light
Length of Day
Tomorrow will be .
, % of the Moon is Illuminated

Today's Extremes

State Highs State Lows

Community

WunderPhotos

Upload Photos

1,808,887 photos uploaded!

WunderBlogs® & News

Nearby

Air Quality

  Air Quality AQ Index Pollutant
Not available.

Snow Depth

Station Depth Elevation

Earthquake Activity

City Distance Mag. Time & Date
Minimum magnitude displayed is 2.5.

Coastal Water Temperatures

Place Temperature

Stations

Nearby Weather Stations

Station Location Temp. Windchill Dew Point Humidity Wind Precip. Elev Updated Type